Main page
METAR-TAF:

METAR-TAF

Airports :

Nouméa / La Tontouta, New Caledonia

La Tontouta International Airport

latitude: 22-01S, longitude: 166-13E, elevation: 16 m

Current weather observation

The report was made 15 minutes ago, at 20:30 UTC
Wind 2 kt from the Southeast
Temperature 13°C
Humidity 82%
Pressure 1016 hPa
Visibility 10 km or more
no clouds below 1500 m and no cumulonimbus

METAR: NWWW 202030Z AUTO 13002KT CAVOK 13/10 Q1016 NOSIG

Time: 07:45 (20:45 UTC)

Forecast

The report was made 3 hours and 45 minutes ago, at 17:00 UTC
Forecast valid from 20 at 18 UTC to 21 at 18 UTC
Wind 5 kt from the West/Southwest
Visibility 10 km or more
Few clouds at a height of 3000 ft
Scattered clouds at a height of 5000 ft

TAF: NWWW 201700Z 2018/2118 25005KT 9999 FEW030 SCT050

Weather observations and forecasts of more than 4000 airports (METAR and TAF reports).

The available stations are represented by yellow and red dots on the map.

Hover mouse over dot to see the name of the station.

Then click to see weather observations and forecasts.

To change the map : click on the green buttons with a black cross to zoom in, on the green button with a dash to zoom out, or on the green arrows for adjacent maps.


METAR-TAF: